Time;durP1;ratioP1;P1;durP2;ratioP2;P2;SDS_P1;SDS_P2;PMS_P1;PMS_P2;Temp;Humidity;BMP_temperature;BMP_pressure;BME280_temperature;BME280_humidity;BME280_pressure;Samples;Min_cycle;Max_cycle;Signal;HPM_P1;HPM_P2
2023/10/28 07:23:20;;;;;;;3.95;2.33;;;;;;;-145.79;100.00;76429.91;5293081;27;20348;-68
2023/10/28 07:25:56;;;;;;;4.88;2.50;;;;;;;-145.79;100.00;76419.31;5288260;28;20029;-68
2023/10/28 07:28:33;;;;;;;7.13;3.15;;;;;;;-145.79;100.00;76423.56;5287459;28;20131;-68
2023/10/28 07:31:06;;;;;;;7.32;2.22;;;;;;;-145.79;100.00;76421.44;5288234;28;20040;-68
2023/10/28 07:33:37;;;;;;;5.10;2.28;;;;;;;-145.79;100.00;76415.06;5288128;28;20035;-68
2023/10/28 07:36:08;;;;;;;4.85;1.90;;;;;;;-145.79;100.00;76417.19;5291144;28;20032;-69
2023/10/28 07:38:40;;;;;;;3.60;1.98;;;;;;;-145.79;100.00;76417.19;5290845;28;20032;-69
2023/10/28 07:41:11;;;;;;;3.55;1.80;;;;;;;-145.79;100.00;76412.97;5288743;28;20033;-69
2023/10/28 07:43:43;;;;;;;5.30;1.98;;;;;;;-145.79;100.00;76408.72;5290224;28;20115;-68
2023/10/28 07:46:14;;;;;;;2.47;1.92;;;;;;;-145.79;100.00;76406.59;5282473;28;20020;-69
2023/10/28 07:48:45;;;;;;;3.10;1.77;;;;;;;-145.79;100.00;76404.47;5290664;28;20032;-70
2023/10/28 07:51:17;;;;;;;5.82;1.90;;;;;;;-145.79;100.00;76402.38;5288846;28;20070;-69
2023/10/28 07:53:52;;;;;;;3.70;1.92;;;;;;;-145.79;100.00;76398.13;5286364;28;20025;-68
2023/10/28 07:56:23;;;;;;;6.50;4.67;;;;;;;-145.79;100.00;76389.66;5283357;28;20039;-68
2023/10/28 07:58:58;;;;;;;8.55;2.50;;;;;;;-145.79;100.00;76393.88;5283181;28;20448;-68
2023/10/28 08:01:29;;;;;;;5.55;1.90;;;;;;;-145.79;100.00;76387.53;5289808;28;20095;-68
2023/10/28 08:04:06;;;;;;;5.28;2.53;;;;;;;-145.79;100.00;76389.66;5284489;28;20532;-68
2023/10/28 08:06:38;;;;;;;5.65;2.55;;;;;;;-145.79;100.00;76389.66;5291555;28;20097;-68
2023/10/28 08:09:15;;;;;;;6.18;1.98;;;;;;;-145.79;100.00;76391.78;5290667;28;20028;-68
2023/10/28 08:11:46;;;;;;;3.83;2.25;;;;;;;-145.79;100.00;76385.41;5287843;28;20037;-68
2023/10/28 08:14:18;;;;;;;3.88;2.17;;;;;;;-145.79;100.00;76385.41;5287658;28;20034;-68
2023/10/28 08:16:49;;;;;;;6.25;2.95;;;;;;;-145.79;100.00;76385.41;5288388;28;20040;-68
2023/10/28 08:19:24;;;;;;;6.28;2.90;;;;;;;-145.79;100.00;76376.94;5286197;28;20097;-68
2023/10/28 08:21:55;;;;;;;4.30;2.30;;;;;;;-145.79;100.00;76376.94;5296250;28;20119;-67
2023/10/28 08:24:26;;;;;;;6.22;2.45;;;;;;;-145.79;100.00;76385.41;5306792;28;20111;-68
2023/10/28 08:26:58;;;;;;;4.18;1.92;;;;;;;-145.79;100.00;76381.16;5311470;28;20355;-68
2023/10/28 08:29:31;;;;;;;5.03;2.45;;;;;;;-145.79;100.00;76381.16;5300980;28;20036;-68
2023/10/28 08:32:03;;;;;;;3.15;1.92;;;;;;;-145.79;100.00;76379.06;5311927;28;20081;-68
2023/10/28 08:34:34;;;;;;;6.18;2.80;;;;;;;-145.79;100.00;76370.56;5295965;28;20037;-67
2023/10/28 08:37:05;;;;;;;9.77;3.50;;;;;;;-145.79;100.00;76372.69;5296598;28;20119;-68
2023/10/28 08:39:37;;;;;;;10.38;3.15;;;;;;;-145.79;100.00;76372.69;5297763;28;20421;-68
2023/10/28 08:42:09;;;;;;;7.85;2.40;;;;;;;-145.79;100.00;76374.81;5292745;28;20031;-67
2023/10/28 08:44:42;;;;;;;5.03;2.28;;;;;;;-145.79;100.00;76374.81;5297329;28;20533;-69
2023/10/28 08:47:19;;;;;;;5.13;1.92;;;;;;;-145.79;100.00;76368.47;5299605;28;20020;-68
2023/10/28 08:49:52;;;;;;;5.78;2.20;;;;;;;-145.79;100.00;76364.22;5292961;28;20047;-71
2023/10/28 08:52:24;;;;;;;6.25;3.10;;;;;;;-145.79;100.00;76368.47;5296048;28;20111;-70
2023/10/28 08:54:58;;;;;;;6.68;3.15;;;;;;;-145.79;100.00;76368.47;5297968;28;20076;-71
2023/10/28 08:57:32;;;;;;;6.40;2.38;;;;;;;-145.79;100.00;76368.47;5292326;28;20036;-71
2023/10/28 09:00:14;;;;;;;5.78;2.65;;;;;;;-145.79;100.00;76353.63;5293596;28;20028;-70
2023/10/28 09:02:46;;;;;;;5.85;2.10;;;;;;;-145.79;100.00;76353.63;5297801;28;20474;-71
2023/10/28 09:05:19;;;;;;;4.95;2.38;;;;;;;-145.79;100.00;76347.25;5285571;28;20422;-70
2023/10/28 09:07:51;;;;;;;7.07;2.53;;;;;;;-145.79;100.00;76349.38;5292453;28;20028;-71
2023/10/28 09:10:23;;;;;;;6.13;2.47;;;;;;;-145.79;100.00;76345.16;5295721;28;20081;-72
2023/10/28 09:12:55;;;;;;;6.28;2.50;;;;;;;-145.79;100.00;76328.19;5290358;28;20521;-70
2023/10/28 09:15:26;;;;;;;6.80;2.47;;;;;;;-145.79;100.00;76317.59;5295473;28;20116;-71
2023/10/28 09:17:58;;;;;;;5.90;2.35;;;;;;;-145.79;100.00;76315.47;5289093;28;20028;-71
2023/10/28 09:20:29;;;;;;;6.93;2.30;;;;;;;-145.79;100.00;76317.59;5290906;28;20024;-71
2023/10/28 09:23:01;;;;;;;4.70;2.50;;;;;;;-145.79;100.00;76313.34;5290346;28;20040;-71
2023/10/28 09:25:34;;;;;;;6.65;2.38;;;;;;;-145.79;100.00;76311.25;5295454;28;20020;-71
2023/10/28 09:28:14;;;;;;;6.13;2.53;;;;;;;-145.79;100.00;76300.66;5290026;28;20032;-71
2023/10/28 09:30:46;;;;;;;4.78;1.92;;;;;;;-145.79;100.00;76304.88;5294382;28;20032;-71
2023/10/28 09:33:18;;;;;;;6.18;2.08;;;;;;;-145.79;100.00;76300.66;5290038;28;20035;-71
2023/10/28 09:35:55;;;;;;;4.70;2.00;;;;;;;-145.79;100.00;76296.41;5292435;28;20028;-72
2023/10/28 09:38:28;;;;;;;6.13;2.15;;;;;;;-145.79;100.00;76300.66;5294626;28;20032;-70
2023/10/28 09:41:01;;;;;;;11.75;8.70;;;;;;;-145.79;100.00;76290.06;5289835;28;20036;-70
2023/10/28 09:43:37;;;;;;;6.18;2.08;;;;;;;-145.79;100.00;76292.16;5294346;28;20531;-69
2023/10/28 09:46:08;;;;;;;5.55;1.95;;;;;;;-145.79;100.00;76281.56;5289858;28;20025;-69
2023/10/28 09:48:45;;;;;;;7.55;3.22;;;;;;;-145.79;100.00;76287.94;5297870;28;20054;-69
2023/10/28 09:51:22;;;;;;;4.80;1.90;;;;;;;-145.79;100.00;76287.94;5292925;28;20098;-69
2023/10/28 09:54:04;;;;;;;5.55;1.70;;;;;;;-145.79;100.00;76285.81;5286324;28;20020;-68
2023/10/28 09:56:37;;;;;;;4.32;1.90;;;;;;;-145.79;100.00;76281.56;5293457;28;20444;-69
2023/10/28 09:59:19;;;;;;;6.22;2.17;;;;;;;-145.79;100.00;76268.84;5293543;28;20025;-68
2023/10/28 10:02:11;;;;;;;3.97;1.73;;;;;;;-145.79;100.00;76264.63;5296864;28;20467;-68
2023/10/28 10:04:54;;;;;;;4.20;1.80;;;;;;;-145.79;99.94;76249.78;5277256;28;20123;-68
2023/10/28 10:07:26;;;;;;;4.97;1.65;;;;;;;-145.79;98.41;76243.44;5293692;28;20431;-68
2023/10/28 10:10:13;;;;;;;3.83;1.83;;;;;;;-145.79;98.03;76237.06;5296639;28;20153;-69
2023/10/28 10:12:45;;;;;;;5.65;2.80;;;;;;;-145.79;95.42;76230.72;5290601;28;20636;-68
2023/10/28 10:15:19;;;;;;;3.47;1.83;;;;;;;-145.79;95.66;76213.75;5289006;28;20039;-68
2023/10/28 10:18:10;;;;;;;5.87;1.93;;;;;;;-145.79;95.53;76209.53;5288241;28;20687;-68
2023/10/28 10:20:45;;;;;;;7.22;4.05;;;;;;;-145.79;94.47;76222.25;5291992;28;20147;-68
2023/10/28 10:23:17;;;;;;;3.67;1.90;;;;;;;-145.79;93.27;76232.84;5292278;28;20523;-68
2023/10/28 10:25:49;;;;;;;4.10;2.10;;;;;;;-145.79;94.23;76232.84;5290878;28;20054;-68
2023/10/28 10:28:23;;;;;;;3.58;1.92;;;;;;;-145.79;93.44;76232.84;5298844;28;20045;-66
2023/10/28 10:30:56;;;;;;;5.72;2.08;;;;;;;-145.79;93.74;76232.84;5294616;28;20417;-67
2023/10/28 10:33:31;;;;;;;8.18;3.03;;;;;;;-145.79;91.89;76239.19;5295793;28;20024;-67
2023/10/28 10:36:03;;;;;;;5.10;2.20;;;;;;;-145.79;92.41;76237.06;5291231;28;20016;-68
2023/10/28 10:38:34;;;;;;;6.82;2.20;;;;;;;-145.79;92.39;76232.84;5288679;28;20433;-67
2023/10/28 10:41:05;;;;;;;5.20;2.10;;;;;;;-145.79;93.80;76234.97;5294291;28;20252;-67
2023/10/28 10:43:38;;;;;;;4.35;1.95;;;;;;;-145.79;92.97;76228.59;5287618;28;20438;-68
2023/10/28 10:46:10;;;;;;;9.00;2.67;;;;;;;-145.79;91.55;76237.06;5293957;28;20023;-67
2023/10/28 10:48:44;;;;;;;4.18;2.25;;;;;;;-145.79;92.58;76228.59;5292929;28;20028;-67
2023/10/28 10:51:15;;;;;;;7.85;2.50;;;;;;;-145.79;91.36;76224.38;5287867;28;20068;-67
2023/10/28 10:53:47;;;;;;;5.63;2.22;;;;;;;-145.79;92.00;76207.41;5294895;28;20024;-68
2023/10/28 10:56:19;;;;;;;3.85;2.35;;;;;;;-145.79;91.41;76207.41;5288302;28;20036;-69
2023/10/28 10:58:51;;;;;;;4.43;1.90;;;;;;;-145.79;93.24;76194.69;5296290;28;20027;-69
2023/10/28 11:01:22;;;;;;;4.40;1.95;;;;;;;-145.79;91.74;76194.69;5287655;28;20024;-69
2023/10/28 11:03:55;;;;;;;4.45;2.10;;;;;;;-145.79;90.69;76184.09;5296649;28;20106;-69
2023/10/28 11:06:26;;;;;;;5.05;1.95;;;;;;;-145.79;91.87;76179.88;5282318;28;20028;-69
2023/10/28 11:09:02;;;;;;;5.13;2.10;;;;;;;-145.79;89.87;76181.97;5288988;28;20075;-69
2023/10/28 11:11:38;;;;;;;6.88;2.25;;;;;;;-145.79;88.62;76173.50;5298215;28;20050;-69
2023/10/28 11:14:10;;;;;;;9.05;2.40;;;;;;;-145.79;88.58;76156.56;5283776;28;20028;-69
2023/10/28 11:16:42;;;;;;;9.02;2.38;;;;;;;-145.79;88.89;76145.97;5286996;28;20035;-69
2023/10/28 11:19:13;;;;;;;5.38;2.00;;;;;;;-145.79;87.73;76156.56;5295582;28;20028;-68
2023/10/28 11:21:46;;;;;;;7.28;2.28;;;;;;;-145.79;88.23;76143.84;5291353;28;20047;-69
2023/10/28 11:24:19;;;;;;;5.97;2.47;;;;;;;-145.79;85.69;76143.84;5288083;28;20077;-68
2023/10/28 11:26:50;;;;;;;4.82;2.13;;;;;;;-145.79;85.30;76135.38;5290699;28;20024;-68
2023/10/28 11:29:23;;;;;;;11.32;3.60;;;;;;;-145.79;83.66;76135.38;5290594;28;20432;-68
2023/10/28 11:31:55;;;;;;;6.72;2.35;;;;;;;-145.79;85.00;76133.25;5290042;28;20029;-68
2023/10/28 11:34:26;;;;;;;8.35;3.25;;;;;;;-145.79;84.84;76139.59;5291262;28;20468;-68
2023/10/28 11:36:59;;;;;;;5.65;2.20;;;;;;;-145.79;85.68;76131.13;5292269;28;20169;-68
2023/10/28 11:39:33;;;;;;;9.50;6.65;;;;;;;-145.79;84.42;76122.66;5293787;28;20493;-69
2023/10/28 11:42:10;;;;;;;9.07;3.38;;;;;;;-145.79;84.86;76114.19;5289408;28;20028;-69
2023/10/28 11:44:49;;;;;;;8.88;3.10;;;;;;;-145.79;84.74;76103.56;5293333;28;20025;-69
2023/10/28 11:47:21;;;;;;;6.35;2.70;;;;;;;-145.79;83.70;76088.75;5286024;28;20030;-70
2023/10/28 11:49:53;;;;;;;9.20;2.40;;;;;;;-145.79;83.81;76084.50;5290684;28;20024;-70
2023/10/28 11:52:27;;;;;;;9.45;3.22;;;;;;;-145.79;84.23;76092.97;5289794;28;20047;-70
2023/10/28 11:55:04;;;;;;;6.20;2.60;;;;;;;-145.79;84.17;76086.63;5284023;28;20024;-70
2023/10/28 11:57:38;;;;;;;8.85;3.25;;;;;;;-145.79;83.05;76095.09;5294638;28;20039;-70
2023/10/28 12:00:11;;;;;;;10.57;2.67;;;;;;;-145.79;82.57;76101.47;5292470;28;20086;-70
2023/10/28 12:02:42;;;;;;;9.10;3.20;;;;;;;-145.79;82.83;76101.47;5286686;28;20051;-68
2023/10/28 12:05:13;;;;;;;11.80;3.63;;;;;;;-145.79;82.96;76105.69;5295587;28;20472;-69
2023/10/28 12:07:45;;;;;;;12.32;3.00;;;;;;;-145.79;82.93;76107.81;5293040;28;20028;-69
2023/10/28 12:10:16;;;;;;;9.02;3.00;;;;;;;-145.79;83.21;76109.94;5296379;28;20025;-70
2023/10/28 12:12:47;;;;;;;10.10;3.15;;;;;;;-145.79;82.34;76101.47;5296909;28;20024;-70
2023/10/28 12:15:19;;;;;;;11.93;3.38;;;;;;;-145.79;81.35;76101.47;5297201;28;20085;-69
2023/10/28 12:17:50;;;;;;;8.27;3.40;;;;;;;-145.79;82.28;76084.50;5294192;28;20025;-72
2023/10/28 12:20:21;;;;;;;10.40;4.18;;;;;;;-145.79;80.46;76086.63;5292198;28;20020;-70
2023/10/28 12:22:53;;;;;;;10.38;4.00;;;;;;;-145.79;79.84;76092.97;5293905;28;20044;-70
2023/10/28 12:25:25;;;;;;;11.88;3.90;;;;;;;-145.79;78.51;76088.75;5293840;28;20518;-70
2023/10/28 12:27:57;;;;;;;8.00;3.15;;;;;;;-145.79;79.63;76076.03;5290982;28;20020;-70
2023/10/28 12:30:28;;;;;;;9.80;3.15;;;;;;;-145.79;80.79;76069.69;5292491;28;20433;-71
2023/10/28 12:33:00;;;;;;;7.90;2.92;;;;;;;-145.79;79.64;76063.31;5292808;28;20036;-70
2023/10/28 12:35:32;;;;;;;11.45;4.93;;;;;;;-145.79;78.32;76065.44;5296190;28;20122;-70
2023/10/28 12:38:03;;;;;;;8.40;3.20;;;;;;;-145.79;78.00;76067.56;5295516;28;20132;-69
2023/10/28 12:40:34;;;;;;;10.65;3.10;;;;;;;-145.79;77.57;76056.97;5290403;28;20474;-70
2023/10/28 12:43:06;;;;;;;12.90;3.78;;;;;;;-145.79;77.20;76067.56;5290271;28;20041;-70
2023/10/28 12:45:37;;;;;;;10.43;3.97;;;;;;;-145.79;77.86;76063.31;5295266;28;20020;-70
2023/10/28 12:48:09;;;;;;;6.70;2.72;;;;;;;-145.79;78.62;76046.38;5293547;28;20531;-70
2023/10/28 12:50:40;;;;;;;11.95;3.40;;;;;;;-145.79;77.36;76065.44;5293737;28;20027;-71
2023/10/28 12:53:12;;;;;;;11.60;3.55;;;;;;;-145.79;77.32;76054.84;5293340;28;20039;-70
2023/10/28 12:55:43;;;;;;;7.18;2.85;;;;;;;-145.79;77.48;76071.78;5289259;28;20021;-69
2023/10/28 12:58:14;;;;;;;13.20;3.40;;;;;;;-145.79;79.11;76071.78;5291806;28;20053;-71
2023/10/28 13:00:47;;;;;;;10.00;3.28;;;;;;;-145.79;79.27;76082.38;5291422;28;20031;-70
2023/10/28 13:03:18;;;;;;;10.48;3.55;;;;;;;-145.79;78.20;76084.50;5291612;28;20032;-72
2023/10/28 13:05:50;;;;;;;9.52;3.88;;;;;;;-145.79;79.09;76086.63;5292401;28;20020;-69
2023/10/28 13:08:23;;;;;;;10.18;3.08;;;;;;;-145.79;79.83;76080.28;5275556;28;20131;-69
2023/10/28 13:10:54;;;;;;;9.23;2.78;;;;;;;-145.79;79.61;76076.03;5294053;28;20111;-71
2023/10/28 13:13:25;;;;;;;8.43;3.92;;;;;;;-145.79;80.54;76065.44;5293441;28;20359;-71
2023/10/28 13:16:00;;;;;;;10.40;3.10;;;;;;;-145.79;80.01;76063.31;5295330;28;20035;-69
2023/10/28 13:18:32;;;;;;;9.60;3.75;;;;;;;-145.79;80.56;76054.84;5288473;28;20139;-69
2023/10/28 13:21:03;;;;;;;8.35;3.05;;;;;;;-145.79;79.07;76046.38;5291699;28;20028;-69
2023/10/28 13:23:34;;;;;;;7.82;2.47;;;;;;;-145.79;78.89;76046.38;5293534;28;20045;-71
2023/10/28 13:26:10;;;;;;;10.10;2.88;;;;;;;-145.79;78.35;76061.19;5288579;28;20088;-70
2023/10/28 13:28:42;;;;;;;5.80;2.47;;;;;;;-145.79;79.97;76046.38;5289250;28;20040;-70
2023/10/28 13:31:13;;;;;;;10.13;3.58;;;;;;;-145.79;78.51;76059.09;5293394;28;20068;-69
2023/10/28 13:33:45;;;;;;;9.52;3.03;;;;;;;-145.79;78.36;76061.19;5294049;28;20372;-70
2023/10/28 13:36:16;;;;;;;86.55;71.18;;;;;;;-145.79;80.03;76056.97;5292157;28;20415;-69
2023/10/28 13:38:48;;;;;;;13.35;6.03;;;;;;;-145.79;79.14;76059.09;5295040;28;20129;-69
2023/10/28 13:41:19;;;;;;;8.45;3.08;;;;;;;-145.79;78.64;76059.09;5292290;28;20035;-71
2023/10/28 13:43:50;;;;;;;9.07;3.72;;;;;;;-145.79;79.22;76061.19;5295339;28;20029;-73
2023/10/28 13:46:22;;;;;;;14.20;8.40;;;;;;;-145.79;79.39;76071.78;5296679;28;20020;-67
2023/10/28 13:48:53;;;;;;;10.18;3.13;;;;;;;-145.79;79.45;76071.78;5295355;28;20467;-69
2023/10/28 13:51:25;;;;;;;7.95;3.83;;;;;;;-145.79;79.63;76086.63;5291772;28;20032;-69
2023/10/28 13:53:56;;;;;;;10.32;3.63;;;;;;;-145.79;80.33;76084.50;5293963;28;20020;-71
2023/10/28 13:56:30;;;;;;;6.55;3.78;;;;;;;-145.79;80.21;76086.63;5292859;28;20033;-68
2023/10/28 13:59:03;;;;;;;11.55;3.97;;;;;;;-145.79;81.02;76078.16;5292751;28;20047;-71
2023/10/28 14:01:35;;;;;;;16.25;4.65;;;;;;;-145.79;80.91;76069.69;5289945;28;20043;-68
2023/10/28 14:04:07;;;;;;;8.82;3.30;;;;;;;-145.79;81.58;76059.09;5289970;28;20032;-70
2023/10/28 14:06:39;;;;;;;7.88;2.78;;;;;;;-145.79;82.11;76046.38;5292114;28;20073;-70
2023/10/28 14:09:12;;;;;;;7.68;2.72;;;;;;;-145.79;81.43;76054.84;5288835;28;20036;-69
2023/10/28 14:11:44;;;;;;;10.23;3.78;;;;;;;-145.79;81.96;76050.59;5294457;28;20031;-70
2023/10/28 14:14:19;;;;;;;9.50;3.42;;;;;;;-145.79;81.82;76046.38;5292014;28;20488;-71
2023/10/28 14:16:50;;;;;;;10.57;4.47;;;;;;;-145.79;82.49;76046.38;5293115;28;20035;-70
2023/10/28 14:19:21;;;;;;;10.60;3.47;;;;;;;-145.79;82.88;76059.09;5293797;28;20337;-70
2023/10/28 14:21:56;;;;;;;7.38;2.85;;;;;;;-145.79;83.19;76063.31;5291679;28;20044;-71
2023/10/28 14:24:29;;;;;;;11.75;4.30;;;;;;;-145.79;82.85;76071.78;5289838;28;20028;-70
2023/10/28 14:27:00;;;;;;;7.97;3.50;;;;;;;-145.79;82.79;76078.16;5291648;28;20025;-70
2023/10/28 14:29:32;;;;;;;8.43;2.92;;;;;;;-145.79;83.31;76082.38;5290650;28;20028;-71
2023/10/28 14:32:04;;;;;;;11.65;4.28;;;;;;;-145.79;82.69;76084.50;5291667;28;20063;-70
2023/10/28 14:34:35;;;;;;;10.38;3.63;;;;;;;-145.79;83.42;76082.38;5290149;28;20052;-70
2023/10/28 14:37:07;;;;;;;7.93;3.63;;;;;;;-145.79;82.41;76080.28;5290888;28;20035;-71
2023/10/28 14:39:38;;;;;;;8.50;3.20;;;;;;;-145.79;82.69;76076.03;5294384;28;20024;-69
2023/10/28 14:42:10;;;;;;;7.65;2.97;;;;;;;-145.79;81.96;76073.91;5291996;28;20024;-69
2023/10/28 14:44:42;;;;;;;9.80;2.55;;;;;;;-145.79;81.33;76076.03;5292517;28;20038;-68
2023/10/28 14:47:14;;;;;;;6.88;3.08;;;;;;;-145.79;80.75;76073.91;5293818;28;20439;-69
2023/10/28 14:49:46;;;;;;;7.32;2.40;;;;;;;-145.79;80.79;76090.88;5291384;28;20024;-69
2023/10/28 14:52:18;;;;;;;5.78;2.30;;;;;;;-145.79;81.75;76082.38;5291935;28;20028;-70
2023/10/28 14:54:49;;;;;;;6.93;3.30;;;;;;;-145.79;82.03;76088.75;5289198;28;20586;-70
2023/10/28 14:57:20;;;;;;;6.85;2.60;;;;;;;-145.79;82.53;76080.28;5290966;28;20066;-70
2023/10/28 14:59:51;;;;;;;5.25;2.50;;;;;;;-145.79;81.85;76092.97;5290155;28;20029;-70
2023/10/28 15:02:23;;;;;;;6.00;3.53;;;;;;;-145.79;82.35;76092.97;5287720;28;20033;-71
2023/10/28 15:04:55;;;;;;;9.85;3.80;;;;;;;-145.79;82.29;76103.56;5286604;28;20057;-72
2023/10/28 15:07:26;;;;;;;6.88;2.60;;;;;;;-145.79;82.59;76092.97;5293761;28;20062;-73
2023/10/28 15:09:58;;;;;;;8.00;3.42;;;;;;;-145.79;82.48;76101.47;5293869;28;20099;-72
2023/10/28 15:12:29;;;;;;;6.95;3.90;;;;;;;-145.79;82.77;76099.34;5287950;28;20059;-70
2023/10/28 15:15:00;;;;;;;8.32;3.17;;;;;;;-145.79;82.81;76099.34;5290383;28;20020;-71
2023/10/28 15:17:33;;;;;;;8.13;3.17;;;;;;;-145.79;82.85;76118.41;5288530;28;20016;-72
2023/10/28 15:20:05;;;;;;;7.80;2.80;;;;;;;-145.79;83.07;76114.19;5291877;28;20472;-68
2023/10/28 15:22:36;;;;;;;7.72;2.80;;;;;;;-145.79;82.91;76116.28;5291276;28;20089;-67
2023/10/28 15:25:08;;;;;;;7.10;4.43;;;;;;;-145.79;83.15;76114.19;5291740;28;20059;-68
2023/10/28 15:27:40;;;;;;;11.25;3.40;;;;;;;-145.79;83.37;76116.28;5295208;28;20056;-68
2023/10/28 15:30:13;;;;;;;8.48;4.03;;;;;;;-145.79;83.70;76122.66;5295226;28;20019;-67
2023/10/28 15:32:44;;;;;;;8.80;5.30;;;;;;;-145.79;83.81;76112.06;5286700;28;20092;-68
2023/10/28 15:35:25;;;;;;;9.57;3.30;;;;;;;-145.79;84.45;76131.13;5288228;28;20378;-70
2023/10/28 15:37:56;;;;;;;6.85;2.83;;;;;;;-145.79;84.63;76129.00;5288455;28;20107;-68
2023/10/28 15:40:28;;;;;;;6.95;3.08;;;;;;;-145.79;85.39;76135.38;5292707;28;20096;-67
2023/10/28 15:42:59;;;;;;;6.95;2.17;;;;;;;-145.79;84.83;76137.47;5287204;28;20033;-68
2023/10/28 15:45:31;;;;;;;6.10;3.80;;;;;;;-145.79;85.74;76131.13;5288308;28;20043;-68
2023/10/28 15:48:05;;;;;;;8.05;2.80;;;;;;;-145.79;85.89;76139.59;5297831;28;20119;-68
2023/10/28 15:50:37;;;;;;;6.07;3.00;;;;;;;-145.79;86.04;76122.66;5298297;28;20028;-67
2023/10/28 15:53:08;;;;;;;6.38;2.63;;;;;;;-145.79;86.41;76122.66;5291813;28;20054;-67
2023/10/28 15:55:40;;;;;;;5.07;3.08;;;;;;;-145.79;86.65;76114.19;5290551;28;20152;-67
2023/10/28 15:58:13;;;;;;;5.28;2.95;;;;;;;-145.79;86.95;76114.19;5292627;28;20099;-66
2023/10/28 16:00:44;;;;;;;6.60;3.75;;;;;;;-145.79;87.15;76118.41;5291904;28;20024;-67
2023/10/28 16:03:16;;;;;;;8.05;3.25;;;;;;;-145.79;87.62;76118.41;5292516;28;20348;-67
2023/10/28 16:05:48;;;;;;;5.97;2.50;;;;;;;-145.79;88.13;76120.53;5293584;28;20490;-67
2023/10/28 16:08:19;;;;;;;7.40;2.80;;;;;;;-145.79;87.68;76122.66;5295877;28;20115;-68
2023/10/28 16:10:50;;;;;;;5.88;2.63;;;;;;;-145.79;88.44;76137.47;5298359;28;20020;-68
2023/10/28 16:13:22;;;;;;;9.57;4.05;;;;;;;-145.79;88.36;76135.38;5300227;28;20036;-67
2023/10/28 16:15:53;;;;;;;5.60;3.20;;;;;;;-145.79;88.78;76131.13;5293601;28;20025;-68
2023/10/28 16:18:26;;;;;;;7.90;3.28;;;;;;;-145.79;88.71;76148.06;5300394;28;20027;-68
2023/10/28 16:21:00;;;;;;;7.65;3.00;;;;;;;-145.79;89.29;76158.66;5294693;28;20031;-68
2023/10/28 16:23:32;;;;;;;6.47;3.30;;;;;;;-145.79;89.44;76169.25;5290776;28;20068;-68
2023/10/28 16:26:03;;;;;;;5.63;2.90;;;;;;;-145.79;89.36;76177.75;5297601;28;20479;-67
2023/10/28 16:28:35;;;;;;;9.85;3.75;;;;;;;-145.79;89.72;76177.75;5288278;28;20069;-68
2023/10/28 16:31:06;;;;;;;9.95;3.78;;;;;;;-145.79;90.07;76175.63;5293160;28;20108;-66
2023/10/28 16:33:38;;;;;;;8.65;2.92;;;;;;;-145.79;90.32;76184.09;5291259;28;20464;-67
2023/10/28 16:36:09;;;;;;;9.00;3.97;;;;;;;-145.79;90.55;76186.22;5292591;28;20032;-70
2023/10/28 16:38:40;;;;;;;7.45;2.60;;;;;;;-145.79;90.57;76201.06;5290003;28;20433;-67
2023/10/28 16:41:12;;;;;;;7.75;3.75;;;;;;;-145.79;91.02;76198.94;5292187;28;20020;-66
2023/10/28 16:43:43;;;;;;;7.50;3.40;;;;;;;-145.79;91.32;76190.47;5293238;28;20118;-66
2023/10/28 16:46:15;;;;;;;7.45;3.83;;;;;;;-145.79;91.26;76192.56;5293992;28;20024;-66
2023/10/28 16:48:46;;;;;;;6.05;2.83;;;;;;;-145.79;91.74;76207.41;5287080;28;20032;-70
2023/10/28 16:51:18;;;;;;;7.03;3.60;;;;;;;-145.79;91.95;76203.16;5290311;28;20031;-67
2023/10/28 16:53:50;;;;;;;5.93;2.35;;;;;;;-145.79;92.28;76211.66;5294229;28;20070;-67
